Time;durP1;ratioP1;P1;durP2;ratioP2;P2;SDS_P1;SDS_P2;PMS_P1;PMS_P2;Temp;Humidity;BMP_temperature;BMP_pressure;BME280_temperature;BME280_humidity;BME280_pressure;Samples;Min_cycle;Max_cycle;Signal;HPM_P1;HPM_P2
2023/04/18 00:00:41;;;;;;;10.52;7.05;;;;;;;;;;5097226;28;20031;-69
2023/04/18 00:03:08;;;;;;;12.05;6.15;;;;;;;;;;5092906;28;20026;-69
2023/04/18 00:05:35;;;;;;;9.55;5.65;;;;;;;;;;5096863;28;20513;-68
2023/04/18 00:08:00;;;;;;;7.47;4.82;;;;;;;;;;5092557;28;20023;-69
2023/04/18 00:10:25;;;;;;;8.60;5.23;;;;;;;;;;5080611;28;20024;-69
2023/04/18 00:12:51;;;;;;;6.90;4.90;;;;;;;;;;5078032;28;20272;-68
2023/04/18 00:15:17;;;;;;;7.03;4.97;;;;;;;;;;5096702;28;20023;-69
2023/04/18 00:17:42;;;;;;;7.18;4.75;;;;;;;;;;5095103;28;20054;-69
2023/04/18 00:20:11;;;;;;;7.57;4.70;;;;;;;;;;5091339;28;20130;-69
2023/04/18 00:22:41;;;;;;;6.43;4.60;;;;;;;;;;5095116;28;20326;-68
2023/04/18 00:25:06;;;;;;;8.82;5.20;;;;;;;;;;5091464;28;20061;-69
2023/04/18 00:27:32;;;;;;;6.82;4.43;;;;;;;;;;5075551;28;20032;-68
2023/04/18 00:29:57;;;;;;;7.27;4.50;;;;;;;;;;5076097;28;20077;-69
2023/04/18 00:32:22;;;;;;;7.20;4.00;;;;;;;;;;5091097;28;20032;-69
2023/04/18 00:34:47;;;;;;;5.43;3.80;;;;;;;;;;5093473;28;20080;-69
2023/04/18 00:37:13;;;;;;;9.63;3.83;;;;;;;;;;5080179;28;20031;-69
2023/04/18 00:39:38;;;;;;;6.53;3.87;;;;;;;;;;5077906;28;20307;-73
2023/04/18 00:42:03;;;;;;;4.90;3.60;;;;;;;;;;5094711;28;20436;-74
2023/04/18 00:44:29;;;;;;;4.88;3.72;;;;;;;;;;5080476;28;20449;-73
2023/04/18 00:46:54;;;;;;;4.70;3.42;;;;;;;;;;5091956;28;20051;-73
2023/04/18 00:49:20;;;;;;;4.05;3.25;;;;;;;;;;5078485;28;20026;-73
2023/04/18 00:51:46;;;;;;;4.97;3.22;;;;;;;;;;5074685;28;20036;-73
2023/04/18 00:54:12;;;;;;;4.10;3.08;;;;;;;;;;5077055;28;20027;-73
2023/04/18 00:56:37;;;;;;;5.20;3.55;;;;;;;;;;5092075;28;20040;-73
2023/04/18 00:59:04;;;;;;;4.97;2.88;;;;;;;;;;5093358;28;20038;-73
2023/04/18 01:01:30;;;;;;;5.38;3.15;;;;;;;;;;5095887;28;20495;-73
2023/04/18 01:03:55;;;;;;;4.77;2.70;;;;;;;;;;5096222;28;20035;-73
2023/04/18 01:06:21;;;;;;;3.40;2.80;;;;;;;;;;5080740;28;20783;-73
2023/04/18 01:08:46;;;;;;;5.13;3.50;;;;;;;;;;5095020;28;20283;-73
2023/04/18 01:11:12;;;;;;;6.63;3.43;;;;;;;;;;5072957;28;20519;-73
2023/04/18 01:13:37;;;;;;;4.80;3.53;;;;;;;;;;5077096;28;20282;-73
2023/04/18 01:16:02;;;;;;;6.73;3.47;;;;;;;;;;5098010;28;20093;-74
2023/04/18 01:18:30;;;;;;;5.28;3.42;;;;;;;;;;5100948;28;20061;-73
2023/04/18 01:20:55;;;;;;;4.75;3.03;;;;;;;;;;5094478;28;20505;-73
2023/04/18 01:23:21;;;;;;;6.13;3.45;;;;;;;;;;5079178;28;20083;-73
2023/04/18 01:25:48;;;;;;;4.95;2.90;;;;;;;;;;5092555;28;20511;-73
2023/04/18 01:28:14;;;;;;;4.57;3.05;;;;;;;;;;5086844;28;20038;-74
2023/04/18 01:30:39;;;;;;;3.90;2.90;;;;;;;;;;5077250;28;20016;-73
2023/04/18 01:33:04;;;;;;;4.50;3.30;;;;;;;;;;5091834;28;20031;-73
2023/04/18 01:35:30;;;;;;;3.80;2.83;;;;;;;;;;5092595;28;20126;-73
2023/04/18 01:37:56;;;;;;;4.78;3.17;;;;;;;;;;5083307;28;20035;-73
2023/04/18 01:40:21;;;;;;;4.28;3.20;;;;;;;;;;5091048;28;20497;-73
2023/04/18 01:42:46;;;;;;;4.72;2.95;;;;;;;;;;5092685;28;20043;-73
2023/04/18 01:45:12;;;;;;;5.73;3.57;;;;;;;;;;5062095;28;20039;-72
2023/04/18 01:47:37;;;;;;;5.50;3.53;;;;;;;;;;5077605;28;20496;-73
2023/04/18 01:50:03;;;;;;;4.25;2.60;;;;;;;;;;5091785;28;20180;-73
2023/04/18 01:52:28;;;;;;;3.65;2.88;;;;;;;;;;5092269;28;20526;-73
2023/04/18 01:54:53;;;;;;;3.85;3.00;;;;;;;;;;5094510;28;20808;-73
2023/04/18 01:57:19;;;;;;;3.90;2.90;;;;;;;;;;5095192;28;20044;-73
2023/04/18 01:59:44;;;;;;;5.67;3.10;;;;;;;;;;5082125;28;20492;-73
2023/04/18 02:02:10;;;;;;;4.00;2.97;;;;;;;;;;5095119;28;20028;-73
2023/04/18 02:04:35;;;;;;;9.82;4.13;;;;;;;;;;5094533;28;20386;-73
2023/04/18 02:07:00;;;;;;;6.88;3.20;;;;;;;;;;5092253;28;20027;-73
2023/04/18 02:09:25;;;;;;;5.00;3.20;;;;;;;;;;5099451;28;20015;-73
2023/04/18 02:11:51;;;;;;;4.77;3.40;;;;;;;;;;5098493;28;20288;-73
2023/04/18 02:14:16;;;;;;;4.90;3.42;;;;;;;;;;5076936;28;20852;-73
2023/04/18 02:16:41;;;;;;;5.97;3.77;;;;;;;;;;5094312;28;21323;-73
2023/04/18 02:19:07;;;;;;;6.70;3.70;;;;;;;;;;5096805;28;20485;-74
2023/04/18 02:21:32;;;;;;;5.82;3.90;;;;;;;;;;5098273;28;20291;-73
2023/04/18 02:23:57;;;;;;;5.03;3.73;;;;;;;;;;5099927;28;20027;-73
2023/04/18 02:26:23;;;;;;;4.33;3.47;;;;;;;;;;5098171;28;21060;-73
2023/04/18 02:28:48;;;;;;;5.43;3.85;;;;;;;;;;5075090;28;20273;-73
2023/04/18 02:31:14;;;;;;;5.47;3.93;;;;;;;;;;5086060;28;20039;-73
2023/04/18 02:33:42;;;;;;;7.35;4.07;;;;;;;;;;5097581;28;20284;-73
2023/04/18 02:36:08;;;;;;;7.13;3.80;;;;;;;;;;5098428;27;20386;-73
2023/04/18 02:38:33;;;;;;;5.18;3.60;;;;;;;;;;5092680;28;20020;-73
2023/04/18 02:40:59;;;;;;;6.78;4.13;;;;;;;;;;5094623;28;20036;-73
2023/04/18 02:43:24;;;;;;;5.93;3.55;;;;;;;;;;5095568;28;20035;-73
2023/04/18 02:45:49;;;;;;;5.67;3.50;;;;;;;;;;5096871;28;20039;-73
2023/04/18 02:48:14;;;;;;;6.13;3.60;;;;;;;;;;5095527;28;21105;-73
2023/04/18 02:50:40;;;;;;;7.43;3.63;;;;;;;;;;5096591;28;20023;-73
2023/04/18 02:53:05;;;;;;;6.97;4.27;;;;;;;;;;5094381;28;20482;-73
2023/04/18 02:55:30;;;;;;;5.70;3.93;;;;;;;;;;5099361;28;20070;-73
2023/04/18 02:57:56;;;;;;;6.75;3.95;;;;;;;;;;5094832;28;20292;-73
2023/04/18 03:00:22;;;;;;;7.53;3.95;;;;;;;;;;5095206;28;20058;-74
2023/04/18 03:02:47;;;;;;;7.32;4.82;;;;;;;;;;5098648;28;20128;-73
2023/04/18 03:05:12;;;;;;;6.57;4.50;;;;;;;;;;5084549;28;20027;-73
2023/04/18 03:07:37;;;;;;;8.83;5.07;;;;;;;;;;5093838;28;20023;-73
2023/04/18 03:10:03;;;;;;;7.27;4.47;;;;;;;;;;5091138;28;20092;-73
2023/04/18 03:12:28;;;;;;;9.50;4.75;;;;;;;;;;5095162;28;20217;-73
2023/04/18 03:14:53;;;;;;;7.37;4.50;;;;;;;;;;5082614;28;20051;-73
2023/04/18 03:17:18;;;;;;;6.10;4.40;;;;;;;;;;5097109;28;20287;-73
2023/04/18 03:19:45;;;;;;;7.53;4.70;;;;;;;;;;5096558;28;20394;-74
2023/04/18 03:22:10;;;;;;;6.90;4.50;;;;;;;;;;5098875;28;20299;-74
2023/04/18 03:24:35;;;;;;;6.83;4.43;;;;;;;;;;5096823;28;20028;-73
2023/04/18 03:27:01;;;;;;;7.67;4.53;;;;;;;;;;5093010;28;20890;-73
2023/04/18 03:29:26;;;;;;;7.65;4.35;;;;;;;;;;5092474;28;20491;-73
2023/04/18 03:31:51;;;;;;;6.73;4.40;;;;;;;;;;5098336;28;20507;-73
2023/04/18 03:34:16;;;;;;;6.23;4.53;;;;;;;;;;5096961;28;20267;-73
2023/04/18 03:36:42;;;;;;;8.20;4.57;;;;;;;;;;5093767;28;21100;-73
2023/04/18 03:39:07;;;;;;;5.90;4.40;;;;;;;;;;5095039;28;20026;-73
2023/04/18 03:41:32;;;;;;;7.13;4.22;;;;;;;;;;5097117;28;20449;-73
2023/04/18 03:43:57;;;;;;;5.00;3.70;;;;;;;;;;5098393;28;20393;-74
2023/04/18 03:46:23;;;;;;;4.83;3.33;;;;;;;;;;5079180;28;20280;-74
2023/04/18 03:48:48;;;;;;;5.75;3.60;;;;;;;;;;5097560;28;20433;-73
2023/04/18 03:51:14;;;;;;;8.10;3.85;;;;;;;;;;5099506;28;20059;-74
2023/04/18 03:53:39;;;;;;;4.93;3.33;;;;;;;;;;5095738;28;20040;-73
2023/04/18 03:56:04;;;;;;;5.03;3.30;;;;;;;;;;5076758;28;20050;-73
2023/04/18 03:58:30;;;;;;;4.38;2.88;;;;;;;;;;5089694;28;20107;-73
2023/04/18 04:00:55;;;;;;;4.10;2.83;;;;;;;;;;5094568;28;20050;-73
2023/04/18 04:03:20;;;;;;;7.70;3.25;;;;;;;;;;5092218;28;20281;-73
2023/04/18 04:05:45;;;;;;;4.47;3.08;;;;;;;;;;5096315;28;20427;-73
2023/04/18 04:08:11;;;;;;;6.10;3.40;;;;;;;;;;5095155;28;20039;-72
2023/04/18 04:10:37;;;;;;;5.55;3.33;;;;;;;;;;5094153;28;20019;-73
2023/04/18 04:13:02;;;;;;;4.17;2.83;;;;;;;;;;5096229;28;20414;-72
2023/04/18 04:15:27;;;;;;;6.30;3.20;;;;;;;;;;5080092;28;20072;-73
2023/04/18 04:17:53;;;;;;;5.47;3.28;;;;;;;;;;5093376;27;20316;-73
2023/04/18 04:20:22;;;;;;;4.60;2.97;;;;;;;;;;5095043;28;20082;-73
2023/04/18 04:22:48;;;;;;;14.30;4.60;;;;;;;;;;5096326;28;20391;-72
2023/04/18 04:25:13;;;;;;;5.82;3.10;;;;;;;;;;5096334;28;20094;-72
2023/04/18 04:27:38;;;;;;;5.10;2.57;;;;;;;;;;5095464;28;20119;-73
2023/04/18 04:30:04;;;;;;;6.97;2.60;;;;;;;;;;5096380;28;20286;-72
2023/04/18 04:32:29;;;;;;;5.22;2.65;;;;;;;;;;5082792;28;20512;-72
2023/04/18 04:34:55;;;;;;;5.00;2.42;;;;;;;;;;5078567;28;20367;-73
2023/04/18 04:37:20;;;;;;;4.97;2.40;;;;;;;;;;5082531;28;20036;-73
2023/04/18 04:39:46;;;;;;;4.50;2.15;;;;;;;;;;5092535;28;20024;-73
2023/04/18 04:42:12;;;;;;;3.10;2.40;;;;;;;;;;5093327;28;20028;-73
2023/04/18 04:44:40;;;;;;;3.13;2.20;;;;;;;;;;5095626;28;20116;-74
2023/04/18 04:47:05;;;;;;;3.42;2.60;;;;;;;;;;5091389;27;20027;-73
2023/04/18 04:49:30;;;;;;;3.90;2.45;;;;;;;;;;5092029;27;20030;-72
2023/04/18 04:51:56;;;;;;;3.63;2.47;;;;;;;;;;5093246;27;20027;-73
2023/04/18 04:54:21;;;;;;;3.28;1.88;;;;;;;;;;5097037;28;20022;-73
2023/04/18 04:56:46;;;;;;;2.97;1.90;;;;;;;;;;5087669;27;20052;-72
2023/04/18 04:59:12;;;;;;;3.13;2.47;;;;;;;;;;5092792;27;20314;-73
2023/04/18 05:01:38;;;;;;;4.50;3.20;;;;;;;;;;5076009;28;20055;-72
2023/04/18 05:04:04;;;;;;;8.68;3.30;;;;;;;;;;5076955;28;20504;-73
2023/04/18 05:06:30;;;;;;;6.30;3.80;;;;;;;;;;5093300;28;20382;-72
2023/04/18 05:08:56;;;;;;;10.55;4.05;;;;;;;;;;5095152;27;20028;-73
2023/04/18 05:11:21;;;;;;;7.35;4.10;;;;;;;;;;5091227;28;20024;-73
2023/04/18 05:13:46;;;;;;;6.10;3.90;;;;;;;;;;5076265;28;20096;-73
2023/04/18 05:16:12;;;;;;;554.70;80.27;;;;;;;;;;5090906;28;20278;-73
2023/04/18 05:18:39;;;;;;;7.40;4.23;;;;;;;;;;5092701;28;20944;-74
2023/04/18 05:21:04;;;;;;;6.97;4.47;;;;;;;;;;5080023;28;20028;-74
2023/04/18 05:23:31;;;;;;;6.57;4.57;;;;;;;;;;5079417;28;20051;-73
2023/04/18 05:25:57;;;;;;;9.63;5.68;;;;;;;;;;5092997;28;20031;-73
2023/04/18 05:28:24;;;;;;;11.55;5.85;;;;;;;;;;5094542;28;20416;-73
2023/04/18 05:30:49;;;;;;;9.98;5.72;;;;;;;;;;5073519;28;20286;-71
2023/04/18 05:33:15;;;;;;;9.93;6.35;;;;;;;;;;5093022;28;20119;-72
2023/04/18 05:35:40;;;;;;;10.85;5.90;;;;;;;;;;5093859;28;20659;-72
2023/04/18 05:38:06;;;;;;;8.02;5.35;;;;;;;;;;5098129;28;20107;-72
2023/04/18 05:40:31;;;;;;;8.32;5.43;;;;;;;;;;5094513;28;20032;-72
2023/04/18 05:42:56;;;;;;;8.03;5.47;;;;;;;;;;5081388;27;20081;-72
2023/04/18 05:45:21;;;;;;;11.70;5.20;;;;;;;;;;5096617;28;20043;-72
2023/04/18 05:47:47;;;;;;;10.40;5.20;;;;;;;;;;5097693;27;20040;-73
2023/04/18 05:50:13;;;;;;;12.47;5.50;;;;;;;;;;5081143;28;20023;-73
2023/04/18 05:52:38;;;;;;;10.30;6.65;;;;;;;;;;5082102;28;20273;-68
2023/04/18 05:55:04;;;;;;;16.05;7.85;;;;;;;;;;5097814;28;21132;-72
2023/04/18 05:57:29;;;;;;;14.07;7.95;;;;;;;;;;5087417;28;20143;-68
2023/04/18 05:59:55;;;;;;;9.30;5.65;;;;;;;;;;5098318;28;20024;-68
2023/04/18 06:02:20;;;;;;;9.35;5.45;;;;;;;;;;5093600;28;20583;-69
2023/04/18 06:04:47;;;;;;;12.30;6.90;;;;;;;;;;5094937;28;20050;-69
2023/04/18 06:07:12;;;;;;;8.80;5.50;;;;;;;;;;5097421;28;20416;-73
2023/04/18 06:09:37;;;;;;;9.67;5.23;;;;;;;;;;5083429;28;20100;-73
2023/04/18 06:12:03;;;;;;;8.03;4.43;;;;;;;;;;5094850;28;20284;-73
2023/04/18 06:14:28;;;;;;;7.88;4.50;;;;;;;;;;5098274;28;20063;-73
2023/04/18 06:16:53;;;;;;;8.07;5.00;;;;;;;;;;5098031;28;20020;-74
2023/04/18 06:19:19;;;;;;;7.45;5.03;;;;;;;;;;5076570;28;20273;-73
2023/04/18 06:21:44;;;;;;;9.20;4.85;;;;;;;;;;5097000;28;20036;-73
2023/04/18 06:24:09;;;;;;;7.47;4.93;;;;;;;;;;5096896;28;20106;-73
2023/04/18 06:26:35;;;;;;;9.23;5.43;;;;;;;;;;5098060;28;20098;-73
2023/04/18 06:29:00;;;;;;;8.70;4.93;;;;;;;;;;5092083;28;20020;-73
2023/04/18 06:31:25;;;;;;;8.55;4.65;;;;;;;;;;5079491;28;20054;-74
2023/04/18 06:33:50;;;;;;;7.03;5.13;;;;;;;;;;5071084;28;20027;-73
2023/04/18 06:36:16;;;;;;;5.63;3.90;;;;;;;;;;5077500;28;20024;-72
2023/04/18 06:38:41;;;;;;;8.90;4.50;;;;;;;;;;5093849;27;20342;-72
2023/04/18 06:41:06;;;;;;;4.97;3.77;;;;;;;;;;5091460;28;20280;-73
2023/04/18 06:43:32;;;;;;;5.40;3.70;;;;;;;;;;5077410;28;20109;-73
2023/04/18 06:45:57;;;;;;;5.25;3.55;;;;;;;;;;5092447;27;20284;-72
2023/04/18 06:48:22;;;;;;;7.85;3.88;;;;;;;;;;5074153;28;20107;-73
2023/04/18 06:50:48;;;;;;;6.63;4.03;;;;;;;;;;5092859;27;20063;-72
2023/04/18 06:53:13;;;;;;;4.93;3.67;;;;;;;;;;5076561;28;20158;-72
2023/04/18 06:55:39;;;;;;;5.40;3.88;;;;;;;;;;5078155;28;20032;-72
2023/04/18 06:58:05;;;;;;;5.35;3.72;;;;;;;;;;5097018;27;20052;-72
2023/04/18 07:00:30;;;;;;;6.95;4.72;;;;;;;;;;5075616;28;20043;-72
2023/04/18 07:02:55;;;;;;;7.30;4.83;;;;;;;;;;5094444;27;20397;-72
2023/04/18 07:05:20;;;;;;;8.77;5.63;;;;;;;;;;5094685;28;20035;-72
2023/04/18 07:07:45;;;;;;;7.77;4.73;;;;;;;;;;5096990;27;20354;-71
2023/04/18 07:10:11;;;;;;;6.85;4.65;;;;;;;;;;5093543;27;20051;-72
2023/04/18 07:12:36;;;;;;;8.33;4.03;;;;;;;;;;5093415;28;20024;-72
2023/04/18 07:15:02;;;;;;;6.33;3.93;;;;;;;;;;5098169;27;20279;-69
2023/04/18 07:17:27;;;;;;;5.75;3.95;;;;;;;;;;5077874;28;20437;-68
2023/04/18 07:19:53;;;;;;;6.47;3.60;;;;;;;;;;5094644;27;20031;-68
2023/04/18 07:22:18;;;;;;;6.30;3.40;;;;;;;;;;5083356;27;20297;-72
2023/04/18 07:24:43;;;;;;;5.45;3.35;;;;;;;;;;5096561;28;20276;-73
2023/04/18 07:27:08;;;;;;;4.80;2.80;;;;;;;;;;5096107;27;20032;-73
2023/04/18 07:29:34;;;;;;;5.40;3.47;;;;;;;;;;5096829;27;20294;-69
2023/04/18 07:32:00;;;;;;;49.05;24.38;;;;;;;;;;5078039;27;20340;-72
2023/04/18 07:34:28;;;;;;;25.98;14.05;;;;;;;;;;5095338;27;20106;-69
2023/04/18 07:36:53;;;;;;;8.45;4.22;;;;;;;;;;5099574;27;20038;-69
2023/04/18 07:39:19;;;;;;;6.43;3.90;;;;;;;;;;5094942;28;20452;-68
2023/04/18 07:41:44;;;;;;;8.05;3.90;;;;;;;11.42;nan;100407.69;5076680;28;20281;-69
2023/04/18 07:44:09;;;;;;;5.18;3.60;;;;;;;;;;5095922;28;20469;-73
2023/04/18 07:46:34;;;;;;;5.90;3.20;;;;;;;;;;5078758;28;20035;-73
2023/04/18 07:49:01;;;;;;;5.30;3.50;;;;;;;;;;5094043;28;20751;-72
2023/04/18 07:51:30;;;;;;;5.53;3.80;;;;;;;;;;5096809;27;20283;-73
2023/04/18 07:53:55;;;;;;;4.28;3.13;;;;;;;;;;5078244;28;20041;-72
2023/04/18 07:56:20;;;;;;;5.85;2.92;;;;;;;;;;5095804;27;20497;-72
2023/04/18 07:58:45;;;;;;;5.33;3.00;;;;;;;;;;5092805;27;20552;-72
2023/04/18 08:01:14;;;;;;;5.43;3.00;;;;;;;;;;5092543;27;20032;-72
2023/04/18 08:03:40;;;;;;;3.95;2.90;;;;;;;;;;5096290;28;20276;-68
2023/04/18 08:06:06;;;;;;;5.50;2.58;;;;;;;;;;5077722;28;20032;-68
2023/04/18 08:08:31;;;;;;;5.03;2.72;;;;;;;;;;5092209;28;20097;-69
2023/04/18 08:10:56;;;;;;;4.60;3.10;;;;;;;;;;5077660;28;20028;-68
2023/04/18 08:13:22;;;;;;;6.40;2.80;;;;;;;;;;5094729;28;20288;-68
2023/04/18 08:15:47;;;;;;;6.53;2.97;;;;;;;;;;5076343;28;20277;-68
2023/04/18 08:18:12;;;;;;;4.45;2.70;;;;;;;;;;5094480;27;20358;-68
2023/04/18 08:20:37;;;;;;;4.10;3.03;;;;;;;;;;5099199;28;20389;-68
2023/04/18 08:23:03;;;;;;;6.47;3.28;;;;;;;;;;5082702;28;20078;-69
2023/04/18 08:25:28;;;;;;;14.77;2.90;;;;;;;;;;5089008;28;20042;-70
2023/04/18 08:27:54;;;;;;;5.93;2.90;;;;;;;;;;5073719;28;20033;-73
2023/04/18 08:30:20;;;;;;;3.83;2.90;;;;;;;;;;5098278;28;20015;-73
2023/04/18 08:32:45;;;;;;;7.78;3.08;;;;;;;;;;5097348;28;20028;-73
2023/04/18 08:35:10;;;;;;;4.07;2.83;;;;;;;;;;5079367;28;20054;-73
2023/04/18 08:37:36;;;;;;;4.03;2.63;;;;;;;;;;5093607;28;20750;-73
2023/04/18 08:40:02;;;;;;;5.33;2.60;;;;;;;;;;5100705;28;20165;-74
2023/04/18 08:42:28;;;;;;;8.60;2.60;;;;;;;;;;5093994;28;20679;-73
2023/04/18 08:44:53;;;;;;;7.07;2.70;;;;;;;;;;5099012;28;20122;-73
2023/04/18 08:47:19;;;;;;;7.23;3.00;;;;;;;;;;5083200;28;20481;-74
2023/04/18 08:49:45;;;;;;;4.45;2.67;;;;;;;;;;5090127;28;20292;-74
2023/04/18 08:52:15;;;;;;;5.13;2.70;;;;;;;;;;5099647;28;20024;-75
2023/04/18 08:54:41;;;;;;;8.30;3.17;;;;;;;;;;5085864;28;20035;-75
2023/04/18 08:57:07;;;;;;;4.72;2.67;;;;;;;;;;5100623;27;20047;-75
2023/04/18 08:59:34;;;;;;;9.43;2.95;;;;;;;;;;5084703;27;20028;-75
2023/04/18 09:02:00;;;;;;;6.53;2.63;;;;;;;;;;5097750;28;20035;-75
2023/04/18 09:04:38;;;;;;;7.45;2.63;;;;;;;;;;5095018;27;20024;-74
2023/04/18 09:07:08;;;;;;;5.78;2.78;;;;;;;;;;5087000;28;20062;-75
2023/04/18 09:09:50;;;;;;;10.52;3.00;;;;;;;;;;5095539;28;20363;-74
2023/04/18 09:12:25;;;;;;;8.00;2.40;;;;;;;;;;5094169;28;20024;-75
2023/04/18 09:14:53;;;;;;;4.43;2.50;;;;;;;;;;5096595;28;20020;-75
2023/04/18 09:17:30;;;;;;;4.90;2.58;;;;;;;;;;5092036;28;20024;-75
2023/04/18 09:19:56;;;;;;;3.47;2.28;;;;;;;;;;5093704;28;20790;-76
2023/04/18 09:22:22;;;;;;;8.38;2.78;;;;;;;;;;5095736;28;20071;-75
2023/04/18 09:24:52;;;;;;;5.43;2.80;;;;;;;;;;5075684;28;20051;-74
2023/04/18 09:27:21;;;;;;;5.15;2.58;;;;;;;;;;5092073;28;20630;-75
2023/04/18 09:29:48;;;;;;;6.97;2.80;;;;;;;;;;5082740;28;20016;-75
2023/04/18 09:32:24;;;;;;;4.15;2.38;;;;;;;;;;5093791;28;20051;-75
2023/04/18 09:34:53;;;;;;;8.93;2.78;;;;;;;;;;5091808;28;20028;-75
2023/04/18 09:37:19;;;;;;;6.72;3.00;;;;;;;;;;5092493;28;20028;-75
2023/04/18 09:39:44;;;;;;;4.40;2.40;;;;;;;;;;5093117;28;20024;-75
2023/04/18 09:42:10;;;;;;;5.55;2.80;;;;;;;;;;5093814;28;20040;-75
2023/04/18 09:44:35;;;;;;;5.70;2.60;;;;;;;;;;5090840;28;20028;-74
2023/04/18 09:47:01;;;;;;;3.42;2.20;;;;;;;;;;5081402;28;20036;-75
2023/04/18 09:49:26;;;;;;;4.70;2.40;;;;;;;;;;5080704;28;20027;-74
2023/04/18 09:51:55;;;;;;;4.97;2.60;;;;;;;;;;5078361;28;20057;-75
2023/04/18 09:54:24;;;;;;;3.80;2.50;;;;;;;;;;5080391;28;20024;-75
2023/04/18 09:56:50;;;;;;;4.32;2.60;;;;;;;;;;5095613;28;20052;-73
2023/04/18 09:59:21;;;;;;;6.05;2.30;;;;;;;;;;5081413;28;20673;-73
2023/04/18 10:01:47;;;;;;;4.25;2.33;;;;;;;;;;5083052;28;20035;-72
2023/04/18 10:04:13;;;;;;;5.38;2.47;;;;;;;;;;5094892;28;20036;-74
2023/04/18 10:06:40;;;;;;;6.75;2.88;;;;;;;;;;5094535;28;20152;-72
2023/04/18 10:09:07;;;;;;;6.97;2.47;;;;;;;;;;5077241;28;20675;-74
2023/04/18 10:11:32;;;;;;;3.22;2.30;;;;;;;;;;5076574;28;20085;-74
2023/04/18 10:14:08;;;;;;;4.03;2.50;;;;;;;;;;5094444;28;20020;-74
2023/04/18 10:16:34;;;;;;;7.00;2.58;;;;;;;;;;5084923;28;20689;-74
2023/04/18 10:19:18;;;;;;;3.92;2.42;;;;;;;;;;5091798;28;20064;-74
2023/04/18 10:21:56;;;;;;;7.57;2.55;;;;;;;;;;5092167;28;20493;-75
2023/04/18 10:24:41;;;;;;;3.42;2.42;;;;;;;;;;5077277;28;20049;-72
2023/04/18 10:27:06;;;;;;;3.20;2.35;;;;;;;;;;5081953;28;20024;-71
2023/04/18 10:29:47;;;;;;;3.43;2.20;;;;;;;;;;5093842;28;20027;-72
2023/04/18 10:32:12;;;;;;;7.85;2.55;;;;;;;;;;5082923;28;20402;-72
2023/04/18 10:34:37;;;;;;;3.83;2.40;;;;;;;;;;5085212;28;20035;-71
2023/04/18 10:37:03;;;;;;;9.50;2.65;;;;;;;;;;5098898;28;20695;-72
2023/04/18 10:39:29;;;;;;;7.38;2.40;;;;;;;;;;5081664;28;20024;-75
2023/04/18 10:41:54;;;;;;;3.33;2.20;;;;;;;;;;5096886;27;20070;-75
2023/04/18 10:44:23;;;;;;;5.00;2.40;;;;;;;;;;5077216;28;20036;-74
2023/04/18 10:46:49;;;;;;;;;;;;;;;;;;5098657;28;20672;-75
2023/04/18 10:49:24;;;;;;;4.77;2.50;;;;;;;;;;5098662;27;19919;-74
2023/04/18 10:51:50;;;;;;;3.75;2.13;;;;;;;;;;5095843;27;20201;-74
2023/04/18 10:54:31;;;;;;;6.72;2.67;;;;;;;;;;5096280;28;20489;-75
2023/04/18 10:56:57;;;;;;;3.45;2.17;;;;;;;;;;5077453;28;21070;-75
2023/04/18 10:59:24;;;;;;;5.63;2.42;;;;;;;15.41;nan;100392.16;5096771;28;20027;-74
2023/04/18 11:01:54;;;;;;;5.90;2.15;;;;;;;;;;5077878;28;20959;-75
2023/04/18 11:04:19;;;;;;;4.20;2.50;;;;;;;;;;5095014;28;20038;-74
2023/04/18 11:06:48;;;;;;;5.23;2.43;;;;;;;;;;5095534;27;20035;-74
2023/04/18 11:09:13;;;;;;;3.75;2.40;;;;;;;;;;5095022;27;20741;-76
2023/04/18 11:11:39;;;;;;;5.27;2.47;;;;;;;;;;5079830;28;20078;-75
2023/04/18 11:14:04;;;;;;;6.47;2.38;;;;;;;;;;5096818;28;20276;-75
2023/04/18 11:16:30;;;;;;;4.30;2.40;;;;;;;;;;5077125;28;20064;-73
2023/04/18 11:18:56;;;;;;;4.35;2.20;;;;;;;;;;5093005;28;20023;-74
2023/04/18 11:21:27;;;;;;;4.32;2.50;;;;;;;;;;5098249;28;20042;-74
2023/04/18 11:23:55;;;;;;;3.45;2.53;;;;;;;;;;5095082;28;20090;-74
2023/04/18 11:26:25;;;;;;;3.97;2.90;;;;;;;;;;5096206;28;20031;-74
2023/04/18 11:28:51;;;;;;;6.22;2.70;;;;;;;;;;5095081;28;20040;-71
2023/04/18 11:31:17;;;;;;;4.25;2.38;;;;;;;;;;5078938;28;20110;-72
2023/04/18 11:33:45;;;;;;;4.95;2.80;;;;;;;;;;5077633;28;20228;-71
2023/04/18 11:36:10;;;;;;;4.35;2.78;;;;;;;;;;5082295;28;20810;-72
2023/04/18 11:38:36;;;;;;;5.25;2.60;;;;;;;;;;5090920;28;20027;-72
2023/04/18 11:41:01;;;;;;;4.97;2.30;;;;;;;;;;5078783;28;20119;-72
2023/04/18 11:43:27;;;;;;;5.13;2.35;;;;;;;;;;5080207;28;20032;-73
2023/04/18 11:45:56;;;;;;;2.88;2.15;;;;;;;;;;5092826;28;20469;-72
2023/04/18 11:48:22;;;;;;;4.88;2.58;;;;;;;;;;5091593;28;20039;-71
2023/04/18 11:50:47;;;;;;;4.95;2.10;;;;;;;;;;5093367;27;20020;-72
2023/04/18 11:53:13;;;;;;;3.45;2.60;;;;;;;;;;5092651;28;20030;-72
2023/04/18 11:55:38;;;;;;;4.13;2.57;;;;;;;;;;5086179;28;20138;-72
2023/04/18 11:58:04;;;;;;;6.00;2.47;;;;;;;;;;5087534;28;20335;-77
2023/04/18 12:00:34;;;;;;;4.00;2.40;;;;;;;;;;5099518;28;21250;-77
2023/04/18 12:03:00;;;;;;;5.30;2.80;;;;;;;;;;5095776;28;20036;-76
2023/04/18 12:05:26;;;;;;;4.13;2.42;;;;;;;;;;5083105;28;20679;-75
2023/04/18 12:07:52;;;;;;;6.18;2.30;;;;;;;;;;5095941;28;20032;-76
2023/04/18 12:10:23;;;;;;;4.05;2.28;;;;;;;;;;5098267;28;20013;-76
2023/04/18 12:12:48;;;;;;;4.68;1.92;;;;;;;;;;5096936;28;20023;-74
2023/04/18 12:15:15;;;;;;;4.17;2.00;;;;;;;;;;5097048;28;20020;-74
2023/04/18 12:17:43;;;;;;;3.75;2.20;;;;;;;15.38;nan;100391.88;5095571;28;20365;-75
2023/04/18 12:20:08;;;;;;;2.67;2.25;;;;;;;;;;5093075;28;20027;-74
2023/04/18 12:22:37;;;;;;;5.72;2.22;;;;;;;;;;5093381;28;20080;-74
2023/04/18 12:25:25;;;;;;;5.53;2.50;;;;;;;;;;5094033;28;20032;-74
2023/04/18 12:27:52;;;;;;;4.47;2.10;;;;;;;;;;5078444;28;20028;-75
2023/04/18 12:30:20;;;;;;;3.17;1.95;;;;;;;;;;5095517;28;20538;-75
2023/04/18 12:32:49;;;;;;;2.97;2.08;;;;;;;;;;5079626;28;20393;-75
2023/04/18 12:35:15;;;;;;;8.40;2.65;;;;;;;;;;5094614;28;20031;-75
2023/04/18 12:37:41;;;;;;;5.15;2.50;;;;;;;;;;5092692;28;20488;-75
2023/04/18 12:40:07;;;;;;;8.00;2.40;;;;;;;;;;5092044;28;20508;-75
2023/04/18 12:42:32;;;;;;;2.83;2.28;;;;;;;;;;5078207;28;20405;-76
2023/04/18 12:45:02;;;;;;;7.13;2.72;;;;;;;;;;5095478;27;20023;-76
2023/04/18 12:47:28;;;;;;;4.32;2.30;;;;;;;;;;5094310;28;20027;-74
2023/04/18 12:49:53;;;;;;;6.75;2.72;;;;;;;;;;5095806;28;20031;-73
2023/04/18 12:52:19;;;;;;;5.17;2.20;;;;;;;;;;5092499;28;20040;-75
2023/04/18 12:54:44;;;;;;;7.63;2.63;;;;;;;;;;5096071;27;20314;-75
2023/04/18 12:57:10;;;;;;;6.57;2.10;;;;;;;;;;5082221;28;20047;-72
2023/04/18 12:59:35;;;;;;;5.50;2.10;;;;;;;;;;5093285;28;20025;-73
2023/04/18 13:02:00;;;;;;;5.00;2.03;;;;;;;;;;5077850;28;20284;-73
2023/04/18 13:04:25;;;;;;;3.50;2.27;;;;;;;;;;5095210;27;20032;-74
2023/04/18 13:06:51;;;;;;;5.93;2.40;;;;;;;;;;5094758;27;20039;-74
2023/04/18 13:09:16;;;;;;;8.07;2.90;;;;;;;;;;5094770;28;20022;-74
2023/04/18 13:11:41;;;;;;;5.95;2.70;;;;;;;;;;5096638;27;20028;-73
2023/04/18 13:14:06;;;;;;;4.03;2.17;;;;;;;;;;5079629;28;20036;-74
2023/04/18 13:16:32;;;;;;;3.57;2.23;;;;;;;;;;5092307;28;20023;-73
2023/04/18 13:18:57;;;;;;;2.93;1.70;;;;;;;;;;5079447;28;20284;-73
2023/04/18 13:21:24;;;;;;;5.57;2.50;;;;;;;;;;5095171;28;20291;-74
2023/04/18 13:23:50;;;;;;;3.58;2.17;;;;;;;;;;5095505;27;20100;-73
2023/04/18 13:26:15;;;;;;;3.13;1.90;;;;;;;16.15;nan;100358.50;5079807;28;20068;-74
2023/04/18 13:28:40;;;;;;;2.72;1.95;;;;;;;;;;5095072;28;20304;-75
2023/04/18 13:31:06;;;;;;;5.77;2.17;;;;;;;;;;5091629;28;20020;-73
2023/04/18 13:33:31;;;;;;;4.40;1.90;;;;;;;;;;5092191;28;20054;-74
2023/04/18 13:35:56;;;;;;;5.73;2.17;;;;;;;;;;5095236;28;20024;-74
2023/04/18 13:38:21;;;;;;;3.00;1.83;;;;;;;;;;5076120;28;20173;-74
2023/04/18 13:40:47;;;;;;;4.80;2.50;;;;;;;;;;5092358;28;20283;-74
2023/04/18 13:43:12;;;;;;;3.67;1.90;;;;;;;;;;5091861;28;20151;-74
2023/04/18 13:45:37;;;;;;;3.42;2.00;;;;;;;;;;5076910;28;20200;-74
2023/04/18 13:48:03;;;;;;;4.03;1.90;;;;;;;;;;5093297;28;20062;-74
2023/04/18 13:50:28;;;;;;;3.78;1.85;;;;;;;;;;5078978;28;20782;-74
2023/04/18 13:52:53;;;;;;;5.20;1.90;;;;;;;;;;5096377;28;20034;-73
2023/04/18 13:55:19;;;;;;;4.80;2.47;;;;;;;;;;5081225;28;20493;-76
2023/04/18 13:57:44;;;;;;;3.80;1.90;;;;;;;;;;5095949;28;20288;-74
2023/04/18 14:00:12;;;;;;;3.28;2.00;;;;;;;;;;5095992;28;20331;-73
2023/04/18 14:02:37;;;;;;;2.53;1.70;;;;;;;;;;5097435;28;20115;-74
2023/04/18 14:05:03;;;;;;;5.00;1.90;;;;;;;;;;5098982;28;20135;-76
2023/04/18 14:07:28;;;;;;;3.17;1.70;;;;;;;;;;5089120;28;20277;-75
2023/04/18 14:09:54;;;;;;;4.87;1.80;;;;;;;;;;5102135;28;20023;-75
2023/04/18 14:12:19;;;;;;;5.60;1.67;;;;;;;;;;5101824;27;20284;-74
2023/04/18 14:14:44;;;;;;;7.00;2.00;;;;;;;;;;5103321;27;20027;-75
2023/04/18 14:17:10;;;;;;;5.53;2.10;;;;;;;;;;5088185;28;20401;-75
2023/04/18 14:19:35;;;;;;;4.07;2.50;;;;;;;;;;5101745;28;20477;-75
2023/04/18 14:22:00;;;;;;;7.00;2.30;;;;;;;;;;5108060;28;20028;-76
2023/04/18 14:24:25;;;;;;;3.87;2.30;;;;;;;;;;5100652;28;20028;-75
2023/04/18 14:26:51;;;;;;;7.43;2.23;;;;;;;;;;5088971;28;20276;-75
2023/04/18 14:29:16;;;;;;;3.67;1.80;;;;;;;;;;5090544;28;20027;-74
2023/04/18 14:31:41;;;;;;;6.37;2.20;;;;;;;;;;5102520;28;20043;-71
2023/04/18 14:34:08;;;;;;;8.43;4.13;;;;;;;;;;5087024;28;20628;-71